Latest Coastal Weather Observations for Cape Otway

IDV60701

Issued at 8:01 pm EST Tuesday 21 April 2015 (issued every 10 minutes, with the page automatically refreshed every 10 minutes)

About coastal observations | Map of coastal stations | Coastal observations for VIC | Marine services | Other Formats
Station Details ID: 090015 Name: CAPE OTWAY LIGHTHOUSE Lat: -38.86 Lon: 143.51 Height: 82.0 m
Data from the previous 72 hours. | See also: Recent months at Cape Otway
Date/Time
EST
Temp

°C
Wind Pressure Rain
since 9am
mm
Weather Cloud Vis
km
Sea
Height
m
Swell
Dir
 
Speed
knots
Gust
knots
hPa Trend Height
m
Period
s
Dir
21/08:00pm 14.3 ESE 11 17 1030.8 - 0.0 - - - - - - -
21/07:30pm 14.3 ESE 13 18 1031.1 - 0.0 - - - - - - -
21/07:00pm 14.0 ESE 15 18 1031.3 - 0.0 - - - - - - -
21/06:30pm 14.1 ESE 16 20 1031.5 - 0.0 - - - - - - -
21/06:00pm 14.2 ESE 16 22 1031.5 - 0.0 - - - - - - -
21/05:30pm 14.3 ESE 15 19 1031.6 - 0.0 - - - - - - -
21/05:00pm 14.4 ESE 13 19 1031.7 - 0.0 - - - - - - -
21/04:30pm 14.5 ESE 14 18 1031.6 - 0.0 - - - - - - -
21/04:00pm 14.8 ESE 13 17 1031.7 - 0.0 - - - - - - -
21/03:30pm 15.1 ESE 12 17 1031.6 - 0.0 - - - - - - -
21/03:00pm 15.3 SE 9 15 1031.6 - 0.0 - - - - - - -
21/02:30pm 14.6 ESE 12 16 1031.7 - 0.0 - - - - - - -
21/02:00pm 15.9 WSW 6 11 1031.9 - 0.0 - - - - - - -
21/01:30pm 15.8 SW 6 10 1032.1 - 0.0 - - - - - - -
21/01:00pm 16.0 WSW 7 11 1032.5 - 0.0 - - - - - - -
21/12:30pm 15.1 WSW 6 13 1032.9 - 0.0 - - - - - - -
21/12:00pm 15.8 WSW 6 10 1033.1 - 0.0 - - - - - - -
21/11:30am 15.1 SW 6 10 1033.7 - 0.0 - - - - - - -
21/11:00am 15.1 WSW 6 10 1033.9 - 0.0 - - - - - - -
21/10:30am 14.7 WSW 6 9 1034.1 - 0.0 - - - - - - -
21/10:00am 14.7 SSW 7 16 1034.4 - 0.0 - - - - - - -
21/09:30am 14.6 S 7 13 1034.6 - 0.0 - - - - - - -
21/09:00am 14.7 SSW 7 16 1034.5 - 0.0 - - - - - - -
21/08:30am 14.3 WSW 7 12 1034.5 - 0.0 - - - - - - -
21/08:00am 14.2 SW 6 16 1034.4 - 0.0 - - - - - - -
21/07:30am 14.1 SSW 7 14 1034.1 - 0.0 - - - - - - -
21/07:00am 13.5 WSW 6 11 1033.9 - 0.0 - - - - - - -
21/06:30am 13.4 WSW 6 10 1034.0 - 0.0 - - - - - - -
21/06:00am 13.5 WSW 6 11 1033.8 - 0.0 - - - - - - -
21/05:30am 13.3 WSW 6 9 1034.0 - 0.0 - - - - - - -
21/05:00am 13.3 WSW 6 11 1033.9 - 0.0 - - - - - - -
21/04:30am 13.3 WSW 6 9 1033.9 - 0.0 - - - - - - -
21/04:00am 13.1 WSW 6 8 1034.0 - 0.0 - - - - - - -
21/03:30am 13.0 WSW 5 11 1034.2 - 0.0 - - - - - - -
21/03:00am 13.2 SSW 6 11 1034.4 - 0.0 - - - - - - -
21/02:30am 13.1 SW 6 10 1034.8 - 0.0 - - - - - - -
21/02:00am 13.5 SW 6 11 1035.0 - 0.0 - - - - - - -
21/01:30am 13.6 WSW 5 8 1035.2 - 0.0 - - - - - - -
21/01:00am 13.5 WSW 5 8 1035.4 - 0.0 - - - - - - -
21/12:30am 13.5 W 5 8 1035.2 - 0.0 - - - - - - -
21/12:00am 13.5 WSW 5 9 1035.3 - 0.0 - - - - - - -
 
Date/Time
EST
Temp

°C
Wind Pressure Rain
since 9am
mm
Weather Cloud Vis
km
Sea
Height
m
Swell
Dir
 
Speed
knots
Gust
knots
hPa Trend Height
m
Period
s
Dir
20/11:30pm 13.4 WSW 5 8 1035.6 - 0.0 - - - - - - -
20/11:00pm 13.3 WSW 5 9 1035.8 - 0.0 - - - - - - -
20/10:30pm 13.3 SW 5 7 1036.1 - 0.0 - - - - - - -
20/10:00pm 13.3 WSW 5 9 1036.3 - 0.0 - - - - - - -
20/09:30pm 13.4 WSW 5 9 1036.4 - 0.0 - - - - - - -
20/09:00pm 13.2 WSW 5 8 1036.4 - 0.0 - - - - - - -
20/08:30pm 13.3 SW 6 12 1036.3 - 0.0 - - - - - - -
20/08:00pm 13.3 SW 6 12 1036.3 - 0.0 - - - - - - -
20/07:30pm 13.0 WSW 6 11 1036.3 - 0.0 - - - - - - -
20/07:00pm 13.2 SW 6 9 1036.4 - 0.0 - - - - - - -
20/06:30pm 13.0 SW 7 11 1036.3 - 0.0 - - - - - - -
20/06:00pm 13.0 WSW 7 11 1036.2 - 0.0 - - - - - - -
20/05:30pm 13.1 SW 6 10 1036.0 - 0.0 - - - - - - -
20/05:00pm 13.3 SW 6 9 1035.9 - 0.0 - - - - - - -
20/04:30pm 13.4 SW 7 11 1035.9 - 0.0 - - - - - - -
20/04:00pm 13.8 SW 6 10 1035.9 - 0.0 - - - - - - -
20/03:30pm 13.9 SW 5 8 1036.1 - 0.0 - - - - - - -
20/03:00pm 14.4 SW 5 9 1036.1 - 0.0 - - - - - - -
20/02:30pm 13.7 SW 5 9 1036.3 - 0.0 - - - - - - -
20/02:00pm 15.3 SSW 6 9 1036.5 - 0.0 - - - - - - -
20/01:30pm 15.1 SSW 5 9 1036.7 - 0.0 - - - - - - -
20/01:00pm 14.4 SSW 5 9 1037.0 - 0.0 - - - - - - -
20/12:30pm 14.3 SSE 6 10 1037.3 - 0.0 - - - - - - -
20/12:00pm 14.1 WSW 5 9 1037.6 - 0.0 - - - - - - -
20/11:30am 12.7 S 6 10 1038.0 - 0.0 - - - - - - -
20/11:00am 14.4 S 5 9 1038.0 - 0.0 - - - - - - -
20/10:30am 13.1 SW 4 8 1038.1 - 0.0 - - - - - - -
20/10:00am 12.7 SE 6 9 1038.1 - 0.0 - - - - - - -
20/09:30am 11.7 SE 5 7 1038.1 - 0.0 - - - - - - -
20/09:00am 10.5 SW 6 11 1038.3 - 2.0 - - - - - - -
20/08:30am 12.2 S 5 9 1038.0 - 1.6 - - - - - - -
20/08:00am 11.4 SE 6 11 1037.8 - 1.6 - - - - - - -
20/07:30am 11.0 ESE 10 12 1037.5 - 1.6 - - - - - - -
20/07:00am 10.9 SW 5 9 1037.4 - 1.6 - - - - - - -
20/06:30am 11.3 SW 7 11 1037.3 - 1.6 - - - - - - -
20/06:00am 11.2 SSW 10 13 1037.0 - 1.6 - - - - - - -
20/05:30am 10.9 SSW 10 15 1036.9 - 1.6 - - - - - - -
20/05:00am 9.0 NNE 2 5 1036.7 - 1.6 - - - - - - -
20/04:30am 9.8 NE 3 5 1036.6 - 1.6 - - - - - - -
20/04:00am 10.9 SW 8 16 1036.3 - 1.0 - - - - - - -
20/03:30am 11.8 SSW 8 11 1036.0 - 0.8 - - - - - - -
20/03:00am 12.1 SW 9 14 1036.0 - 0.8 - - - - - - -
20/02:30am 12.0 SW 7 12 1036.3 - 0.8 - - - - - - -
20/02:00am 11.7 SSW 9 13 1036.2 - 0.8 - - - - - - -
20/01:30am 11.6 SW 8 12 1036.3 - 0.8 - - - - - - -
20/01:00am 11.4 SW 9 13 1036.1 - 0.8 - - - - - - -
20/12:30am 11.2 SW 9 13 1036.3 - 0.8 - - - - - - -
20/12:00am 10.2 SSW 8 13 1036.5 - 0.8 - - - - - - -
 
Date/Time
EST
Temp

°C
Wind Pressure Rain
since 9am
mm
Weather Cloud Vis
km
Sea
Height
m
Swell
Dir
 
Speed
knots
Gust
knots
hPa Trend Height
m
Period
s
Dir
19/11:30pm 11.6 SW 6 10 1036.5 - 0.0 - - - - - - -
19/11:00pm 11.6 SSW 11 16 1036.5 - 0.0 - - - - - - -
19/10:30pm 11.5 SSW 9 15 1036.6 - 0.0 - - - - - - -
19/10:00pm 11.6 SSW 13 17 1036.4 - 0.0 - - - - - - -
19/09:30pm 11.6 SSW 15 24 1035.8 - 0.0 - - - - - - -
19/09:00pm 11.6 SSW 10 14 1035.9 - 0.0 - - - - - - -
19/08:30pm 11.4 SSW 12 19 1035.5 - 0.0 - - - - - - -
19/08:00pm 11.6 SW 11 18 1035.1 - 0.0 - - - - - - -
19/07:30pm 12.0 SSW 11 15 1034.7 - 0.0 - - - - - - -
19/07:00pm 11.9 SSW 12 19 1034.2 - 0.0 - - - - - - -
19/06:30pm 11.9 SSW 11 16 1033.8 - 0.0 - - - - - - -
19/06:00pm 12.0 SW 11 15 1033.1 - 0.0 - - - - - - -
19/05:30pm 11.9 SW 9 15 1032.9 - 0.0 - - - - - - -
19/05:00pm 12.0 SW 10 15 1032.8 - 0.0 - - - - - - -
19/04:30pm 12.5 SW 10 16 1032.6 - 0.0 - - - - - - -
19/04:00pm 12.1 SW 11 17 1032.1 - 0.0 - - - - - - -
19/03:30pm 12.3 SW 11 16 1031.7 - 0.0 - - - - - - -
19/03:00pm 12.2 SW 12 18 1031.4 - 0.0 - - - - - - -
19/02:30pm 12.1 SSW 12 17 1031.4 - 0.0 - - - - - - -
19/02:00pm 12.0 SW 14 19 1030.9 - 0.0 - - - - - - -
19/01:32pm 11.8 SSW 17 27 1031.0 - 0.0 - - - - - - -
19/01:30pm 11.5 SSW 18 27 1031.0 - 0.0 - - - - - - -
19/01:13pm 12.7 SSW 15 25 1030.8 - 0.0 - - - - - - -
19/01:00pm 12.4 SSW 15 23 1030.7 - 0.0 - - - - - - -
19/12:30pm 12.1 SSW 14 21 1030.4 - 0.0 - - - - - - -
19/12:19pm 11.9 SSW 15 28 1030.4 - 0.0 - - - - - - -
19/12:00pm 12.1 SSW 16 25 1030.2 - 0.0 - - - - - - -
19/11:53am 11.7 SSW 15 25 1030.3 - 0.0 - - - - - - -
19/11:30am 11.9 SSW 16 23 1030.1 - 0.0 - - - - - - -
19/11:24am 12.0 SSW 17 27 1030.0 - 0.0 - - - - - - -
19/11:11am 11.6 SSW 21 26 1030.0 - 0.0 - - - - - - -
19/11:00am 11.7 SW 10 23 1029.7 - 0.0 - - - - - - -
19/10:30am 11.5 SSW 15 23 1029.2 - 0.0 - - - - - - -
19/10:00am 11.7 SSW 16 26 1028.8 - 0.0 - - - - - - -
19/09:30am 11.6 SSW 18 28 1028.5 - 0.0 - - - - - - -
19/09:00am 9.8 SSW 22 39 1028.1 - 6.0 - - - - - - -
19/08:52am 9.3 SSW 22 32 1027.8 - 6.0 - - - - - - -
19/08:44am 8.3 SW 20 44 1028.1 - 6.0 - - - - - - -
19/08:40am 8.9 SSW 33 44 1027.9 - 5.6 - - - - - - -
19/08:35am 10.0 SSW 33 42 1027.1 - 5.4 - - - - - - -
19/08:30am 11.8 SSW 18 29 1027.2 - 5.4 - - - - - - -
19/08:14am 11.7 SSW 17 27 1026.9 - 5.4 - - - - - - -
19/08:00am 11.5 SW 14 22 1026.3 - 5.4 - - - - - - -
19/07:30am 11.4 SSW 21 33 1025.0 - 5.4 - - - - - - -
19/07:03am 11.8 SSW 19 29 1024.7 - 5.4 - - - - - - -
19/07:00am 11.7 SSW 18 26 1024.6 - 5.4 - - - - - - -
19/06:34am 11.7 SSW 18 28 1024.2 - 5.4 - - - - - - -
19/06:30am 11.7 SSW 18 27 1023.8 - 5.4 - - - - - - -
19/06:05am 11.7 SSW 23 33 1023.3 - 5.4 - - - - - - -
19/06:00am 11.8 SSW 25 33 1023.1 - 5.4 - - - - - - -
19/05:46am 11.1 SSW 27 37 1022.8 - 5.4 - - - - - - -
19/05:42am 11.4 SSW 31 37 1022.6 - 5.4 - - - - - - -
19/05:30am 11.5 SSW 19 31 1022.6 - 5.4 - - - - - - -
19/05:05am 11.3 SSW 21 31 1022.3 - 5.4 - - - - - - -
19/05:00am 11.6 SSW 23 32 1022.2 - 5.4 - - - - - - -
19/04:30am 11.4 SSW 26 33 1021.6 - 5.4 - - - - - - -
19/04:00am 10.9 SSW 21 31 1021.2 - 5.4 - - - - - - -
19/03:59am 10.9 SSW 21 31 1021.0 - 5.4 - - - - - - -
19/03:39am 10.2 SSW 21 28 1020.6 - 5.4 - - - - - - -
19/03:30am 10.3 WSW 19 32 1020.8 - 4.0 - - - - - - -
19/03:00am 10.4 SSW 21 33 1020.0 - 3.8 - - - - - - -
19/02:57am 11.2 SSW 20 31 1020.2 - 3.8 - - - - - - -
19/02:30am 11.3 SSW 20 29 1020.3 - 3.8 - - - - - - -
19/02:28am 11.2 SSW 20 30 1020.3 - 3.8 - - - - - - -
19/02:00am 11.6 SSW 24 33 1019.7 - 3.8 - - - - - - -
19/01:53am 11.7 SSW 22 33 1019.7 - 3.8 - - - - - - -
19/01:30am 12.1 SW 22 29 1019.6 - 3.8 - - - - - - -
19/01:00am 12.0 SW 22 28 1019.3 - 3.8 - - - - - - -
19/12:47am 11.8 SW 23 33 1019.1 - 3.8 - - - - - - -
19/12:30am 11.7 SW 24 32 1018.9 - 3.8 - - - - - - -
19/12:08am 12.2 SW 24 37 1018.5 - 3.4 - - - - - - -
19/12:00am 12.5 SW 22 29 1018.4 - 3.4 - - - - - - -
 
Date/Time
EST
Temp

°C
Wind Pressure Rain
since 9am
mm
Weather Cloud Vis
km
Sea
Height
m
Swell
Dir
 
Speed
knots
Gust
knots
hPa Trend Height
m
Period
s
Dir
18/11:36pm 12.1 SW 23 33 1018.3 - 3.4 - - - - - - -
18/11:30pm 12.4 SW 27 35 1018.2 - 3.4 - - - - - - -
18/11:12pm 12.6 SW 25 35 1018.0 - 3.4 - - - - - - -
18/11:00pm 12.8 WSW 22 30 1017.8 - 3.4 - - - - - - -
18/10:30pm 12.7 SW 25 34 1017.5 - 3.4 - - - - - - -
18/10:00pm 12.1 SW 21 37 1017.1 - 3.4 - - - - - - -
18/09:33pm 13.1 WSW 23 34 1016.6 - 3.4 - - - - - - -
18/09:30pm 13.2 WSW 21 29 1016.7 - 3.4 - - - - - - -
18/09:00pm 13.0 WSW 21 31 1016.2 - 3.4 - - - - - - -
18/08:30pm 12.9 WSW 23 33 1015.8 - 3.4 - - - - - - -
18/08:17pm 13.0 WSW 22 32 1015.3 - 3.4 - - - - - - -

Other Formats:

Comma delimited format used in spreadsheet applications
http://www.bom.gov.au/fwo/IDV60701/IDV60701.94842.axf

JavaScript Object Notation format (JSON) in row-major order
http://www.bom.gov.au/fwo/IDV60701/IDV60701.94842.json